Time;durP1;ratioP1;P1;durP2;ratioP2;P2;SDS_P1;SDS_P2;PMS_P1;PMS_P2;Temp;Humidity;BMP_temperature;BMP_pressure;BME280_temperature;BME280_humidity;BME280_pressure;Samples;Min_cycle;Max_cycle;Signal;HPM_P1;HPM_P2
2021/04/13 00:01:19;;;;;;;21.05;14.60;;;384.00;2176.00;;;;;;5009133;28;20376;-71
2021/04/13 00:03:44;;;;;;;20.85;15.55;;;359.20;2201.60;;;;;;5003446;28;20038;-73
2021/04/13 00:06:13;;;;;;;19.60;15.60;;;359.10;2252.80;;;;;;5013821;28;20066;-70
2021/04/13 00:08:41;;;;;;;22.02;17.23;;;358.90;2278.40;;;;;;5044548;28;20040;-70
2021/04/13 00:11:10;;;;;;;22.15;16.08;;;358.80;2252.80;;;;;;5048210;28;20029;-70
2021/04/13 00:13:39;;;;;;;28.38;16.63;;;358.70;2278.40;;;;;;5044360;28;20025;-70
2021/04/13 00:16:21;;;;;;;24.05;17.63;;;358.60;2252.80;;;;;;5048207;28;20031;-70
2021/04/13 00:18:49;;;;;;;23.90;16.25;;;358.40;2278.40;;;;;;5040827;28;20029;-70
2021/04/13 00:21:29;;;;;;;21.27;16.48;;;333.60;2304.00;;;;;;5050774;28;20100;-70
2021/04/13 00:23:57;;;;;;;23.75;16.23;;;333.50;2304.00;;;;;;5048434;28;20021;-70
2021/04/13 00:26:26;;;;;;;25.40;17.35;;;333.40;2329.60;;;;;;5049720;28;20114;-70
2021/04/13 00:28:53;;;;;;;22.92;16.10;;;333.20;2329.60;;;;;;5050933;28;20163;-70
2021/04/13 00:31:39;;;;;;;18.92;15.30;;;333.10;2329.60;;;;;;5050971;28;20145;-70
2021/04/13 00:34:07;;;;;;;21.00;14.35;;;333.00;2304.00;;;;;;5051473;28;20380;-71
2021/04/13 00:36:33;;;;;;;20.67;15.38;;;332.90;2304.00;;;;;;5051122;28;20017;-70
2021/04/13 00:39:12;;;;;;;19.83;14.20;;;332.80;2278.40;;;;;;5051018;28;20044;-70
2021/04/13 00:41:45;;;;;;;19.40;14.65;;;332.90;2278.40;;;;;;5047805;28;20044;-71
2021/04/13 00:44:12;;;;;;;20.77;14.85;;;332.80;2278.40;;;;;;5049744;28;20033;-72
2021/04/13 00:46:53;;;;;;;21.27;13.70;;;308.10;2252.80;;;;;;5049823;28;20495;-72
2021/04/13 00:49:22;;;;;;;18.65;13.50;;;332.80;2252.80;;;;;;5050983;28;20060;-70
2021/04/13 00:51:53;;;;;;;18.38;14.10;;;332.80;2252.80;;;;;;5051032;28;20071;-70
2021/04/13 00:54:26;;;;;;;19.65;13.77;;;332.80;2252.80;;;;;;5050713;28;20053;-70
2021/04/13 00:56:54;;;;;;;18.83;14.32;;;332.80;2252.80;;;;;;5050543;28;20025;-72
2021/04/13 00:59:22;;;;;;;18.67;14.18;;;308.10;2252.80;;;;;;5049432;28;20029;-72
2021/04/13 01:02:02;;;;;;;20.15;13.15;;;308.00;2227.20;;;;;;5049618;28;20028;-72
2021/04/13 01:04:39;;;;;;;15.93;12.02;;;307.90;2227.20;;;;;;5066359;28;20414;-72
2021/04/13 01:07:32;;;;;;;17.52;13.07;;;307.70;2201.60;;;;;;5050276;28;20044;-70
2021/04/13 01:10:18;;;;;;;17.77;12.63;;;307.50;2227.20;;;;;;5045914;28;20025;-70
2021/04/13 01:13:10;;;;;;;18.77;11.50;;;307.30;2201.60;;;;;;5035896;28;20021;-70
2021/04/13 01:15:38;;;;;;;16.17;12.55;;;307.20;2227.20;;;;;;5050559;28;20033;-70
2021/04/13 01:18:06;;;;;;;22.35;13.65;;;282.40;2201.60;;;;;;5051013;28;20100;-72
2021/04/13 01:20:38;;;;;;;16.15;12.23;;;282.30;2227.20;;;;;;5049644;28;20086;-70
2021/04/13 01:23:13;;;;;;;17.88;12.43;;;282.40;2227.20;;;;;;5050604;28;20025;-70
2021/04/13 01:25:47;;;;;;;17.40;12.15;;;282.30;2227.20;;;;;;5053582;28;20024;-71
2021/04/13 01:28:18;;;;;;;19.63;13.45;;;282.20;2227.20;;;;;;5054695;28;20476;-70
2021/04/13 01:30:53;;;;;;;15.77;12.48;;;282.20;2227.20;;;;;;5054941;28;20025;-73
2021/04/13 01:33:37;;;;;;;20.80;13.03;;;282.00;2227.20;;;;;;5054689;28;20028;-70
2021/04/13 01:36:24;;;;;;;18.25;12.68;;;281.90;2201.60;;;;;;5048789;28;20262;-72
2021/04/13 01:39:13;;;;;;;15.88;11.30;;;281.80;2227.20;;;;;;5053898;28;20025;-72
2021/04/13 01:44:33;;;;;;;17.20;12.23;;;281.90;2201.60;;;;;;5054280;28;20380;-73
2021/04/13 01:47:00;;;;;;;16.65;11.35;;;281.70;2201.60;;;;;;5053812;28;20025;-73
2021/04/13 01:49:27;;;;;;;18.95;12.63;;;281.60;2201.60;;;;;;5053039;28;20434;-70
2021/04/13 01:51:53;;;;;;;13.60;10.70;;;256.90;2176.00;;;;;;5054247;28;20017;-71
2021/04/13 01:54:19;;;;;;;14.43;11.07;;;256.90;2150.40;;;;;;5054176;28;20040;-72
2021/04/13 01:56:54;;;;;;;19.67;12.50;;;256.80;2150.40;;;;;;5054325;28;20028;-71
2021/04/13 01:59:30;;;;;;;16.67;12.77;;;256.70;2150.40;;;;;;5052659;28;20021;-70
2021/04/13 02:01:59;;;;;;;17.92;11.70;;;256.50;2150.40;;;;;;5054094;28;20491;-72
2021/04/13 02:04:27;;;;;;;16.00;12.18;;;256.50;2150.40;;;;;;5053723;28;20375;-72
2021/04/13 02:07:33;;;;;;;15.32;11.23;;;256.40;2150.40;;;;;;5054089;28;20023;-72
2021/04/13 02:10:36;;;;;;;12.35;10.05;;;256.40;2176.00;;;;;;5055943;28;20037;-71
2021/04/13 02:13:12;;;;;;;11.40;9.85;;;256.40;2150.40;;;;;;5047124;28;20029;-71
2021/04/13 02:16:03;;;;;;;10.63;8.95;;;256.40;2150.40;;;;;;5052415;28;20441;-70
2021/04/13 02:18:38;;;;;;;12.13;9.77;;;256.30;2124.80;;;;;;5053469;28;20099;-70
2021/04/13 02:21:11;;;;;;;13.27;10.25;;;256.20;2124.80;;;;;;5053911;28;20031;-70
2021/04/13 02:23:46;;;;;;;12.38;8.98;;;256.10;2124.80;;;;;;5052171;28;20053;-70
2021/04/13 02:26:13;;;;;;;14.38;9.85;;;256.20;2150.40;;;;;;5049663;28;20562;-70
2021/04/13 02:28:39;;;;;;;11.77;8.65;;;256.10;2150.40;;;;;;5052382;28;20098;-70
2021/04/13 02:31:08;;;;;;;13.48;9.40;;;256.10;2124.80;;;;;;5053308;28;20025;-70
2021/04/13 02:33:39;;;;;;;10.70;8.98;;;256.10;2124.80;;;;;;5045858;28;20068;-71
2021/04/13 02:36:33;;;;;;;11.40;8.48;;;256.10;2099.20;;;;;;5052545;28;20112;-70
2021/04/13 02:39:01;;;;;;;12.32;11.02;;;256.20;2099.20;;;;;;5051946;28;20044;-70
2021/04/13 02:41:32;;;;;;;11.70;10.15;;;256.10;2073.60;;;;;;5052217;28;20120;-70
2021/04/13 02:44:08;;;;;;;15.07;10.18;;;256.10;2073.60;;;;;;5052009;28;20070;-71
2021/04/13 02:46:37;;;;;;;13.90;9.55;;;256.10;2073.60;;;;;;5051825;28;20079;-71
2021/04/13 02:49:11;;;;;;;12.32;9.63;;;256.10;2073.60;;;;;;5053245;28;20029;-71
2021/04/13 02:51:55;;;;;;;11.15;7.88;;;256.10;2048.00;;;;;;5052804;28;20468;-71
2021/04/13 02:54:45;;;;;;;11.05;7.85;;;231.30;2073.60;;;;;;5046457;28;20053;-71
2021/04/13 02:57:27;;;;;;;12.98;8.88;;;231.20;2073.60;;;;;;5045361;28;20484;-71
2021/04/13 03:00:05;;;;;;;11.20;8.38;;;231.10;2073.60;;;;;;5051633;28;20028;-71
2021/04/13 03:02:44;;;;;;;17.67;8.90;;;231.00;2073.60;;;;;;5053273;28;20383;-72
2021/04/13 03:05:23;;;;;;;10.52;8.30;;;231.00;2073.60;;;;;;5051603;28;20029;-71
2021/04/13 03:07:49;;;;;;;13.38;8.57;;;230.90;2073.60;;;;;;5040934;28;20469;-71
2021/04/13 03:10:20;;;;;;;12.25;8.20;;;230.90;2073.60;;;;;;5054097;28;20083;-71
2021/04/13 03:12:51;;;;;;;14.35;9.63;;;230.90;2073.60;;;;;;5059721;28;20021;-71
2021/04/13 03:15:21;;;;;;;12.20;8.73;;;230.90;2073.60;;;;;;5066576;28;20085;-71
2021/04/13 03:17:50;;;;;;;12.90;8.70;;;231.00;2073.60;;;;;;5072861;28;20025;-72
2021/04/13 03:20:25;;;;;;;10.45;8.02;;;230.90;2073.60;;;;;;5059034;28;20021;-72
2021/04/13 03:22:54;;;;;;;10.13;8.38;;;230.90;2073.60;;;;;;5071617;28;20048;-72
2021/04/13 03:25:23;;;;;;;11.98;8.65;;;230.90;2073.60;;;;;;5054810;28;20372;-72
2021/04/13 03:27:51;;;;;;;12.90;8.90;;;230.90;2073.60;;;;;;5051868;28;20037;-73
2021/04/13 03:30:29;;;;;;;12.80;9.45;;;231.00;2073.60;;;;;;5054179;28;20064;-72
2021/04/13 03:32:59;;;;;;;10.90;8.45;;;230.90;2073.60;;;;;;5062176;28;20021;-72
2021/04/13 03:35:27;;;;;;;12.63;7.65;;;230.90;2073.60;;;;;;5038916;28;20021;-72
2021/04/13 03:37:56;;;;;;;13.68;8.93;;;230.90;2073.60;;;;;;5040177;28;20025;-72
2021/04/13 03:40:24;;;;;;;12.05;8.55;;;230.90;2073.60;;;;;;5048748;28;20017;-72
2021/04/13 03:42:59;;;;;;;13.77;8.80;;;230.80;2048.00;;;;;;5040549;28;20479;-72
2021/04/13 03:45:26;;;;;;;11.90;8.68;;;230.80;2048.00;;;;;;5055674;28;20778;-72
2021/04/13 03:47:53;;;;;;;11.85;8.30;;;230.60;2073.60;;;;;;5067120;28;20090;-73
2021/04/13 03:50:28;;;;;;;13.95;9.60;;;230.60;2073.60;;;;;;5054658;28;20033;-72
2021/04/13 03:53:05;;;;;;;10.93;9.02;;;230.60;2073.60;;;;;;5058186;28;20029;-72
2021/04/13 03:55:31;;;;;;;11.70;9.05;;;230.60;2099.20;;;;;;5067106;28;20107;-72
2021/04/13 03:57:57;;;;;;;13.75;8.77;;;230.60;2073.60;;;;;;5039335;28;20033;-72
2021/04/13 04:00:26;;;;;;;14.95;8.93;;;230.70;2073.60;;;;;;5049365;28;20516;-72
2021/04/13 04:02:52;;;;;;;12.48;9.20;;;230.70;2073.60;;;;;;5048134;28;20143;-72
2021/04/13 04:05:24;;;;;;;9.80;7.65;;;230.60;2073.60;;;;;;5045963;28;20511;-72
2021/04/13 04:07:56;;;;;;;9.48;7.78;;;230.60;2073.60;;;;;;5049741;28;20114;-72
2021/04/13 04:10:28;;;;;;;11.52;8.48;;;230.40;2073.60;;;;;;5050562;28;20028;-72
2021/04/13 04:13:06;;;;;;;12.48;8.70;;;230.50;2073.60;;;;;;5065229;28;20030;-72
2021/04/13 04:16:12;;;;;;;11.07;9.40;;;230.50;2048.00;;;;;;5037710;28;20614;-72
2021/04/13 04:18:44;;;;;;;10.93;9.32;;;230.40;2073.60;;;;;;5024715;28;20057;-72
2021/04/13 04:21:28;;;;;;;13.57;10.13;;;230.40;2048.00;;;;;;5024328;28;20026;-72
2021/04/13 04:24:18;;;;;;;11.65;7.82;;;205.70;2048.00;;;;;;5023519;28;20042;-72
2021/04/13 04:26:55;;;;;;;10.82;7.70;;;230.40;2048.00;;;;;;5027241;28;20836;-72
2021/04/13 04:29:32;;;;;;;12.18;9.05;;;205.70;2048.00;;;;;;5029896;28;20069;-72
2021/04/13 04:32:17;;;;;;;17.80;11.68;;;205.70;2048.00;;;;;;5029776;28;20037;-72
2021/04/13 04:34:46;;;;;;;12.60;7.85;;;205.70;2048.00;;;;;;5024971;28;20036;-72
2021/04/13 04:37:28;;;;;;;9.90;7.85;;;205.60;2073.60;;;;;;5029159;28;20125;-72
2021/04/13 04:40:30;;;;;;;11.43;7.90;;;205.60;2073.60;;;;;;5009739;28;20528;-72
2021/04/13 04:43:05;;;;;;;8.13;7.20;;;205.60;2048.00;;;;;;4970767;28;20046;-72
2021/04/13 04:45:36;;;;;;;10.38;7.35;;;205.50;2073.60;;;;;;4970495;28;20038;-72
2021/04/13 04:48:20;;;;;;;11.38;7.53;;;205.50;2073.60;;;;;;4970480;28;20043;-72
2021/04/13 04:50:47;;;;;;;16.42;7.78;;;205.60;2048.00;;;;;;4970208;28;20089;-72
2021/04/13 04:53:14;;;;;;;10.75;7.97;;;205.60;2048.00;;;;;;4970233;28;20101;-72
2021/04/13 04:55:40;;;;;;;8.32;7.30;;;205.60;2048.00;;;;;;4966635;28;20046;-72
2021/04/13 04:58:05;;;;;;;13.18;8.45;;;205.40;2048.00;;;;;;4971932;28;20533;-72
2021/04/13 05:00:31;;;;;;;13.40;9.07;;;205.50;2048.00;;;;;;4974176;28;20782;-72
2021/04/13 05:02:57;;;;;;;17.42;10.38;;;205.60;2048.00;;;;;;4958552;28;20023;-72
2021/04/13 05:05:22;;;;;;;12.02;8.25;;;205.60;2048.00;;;;;;4965849;28;20030;-73
2021/04/13 05:07:48;;;;;;;12.60;8.05;;;205.60;2048.00;;;;;;4974304;28;20034;-72
2021/04/13 05:10:14;;;;;;;10.40;6.65;;;205.50;2022.40;;;;;;4957565;28;20047;-73
2021/04/13 05:12:40;;;;;;;8.30;6.22;;;205.50;2022.40;;;;;;4970474;28;20477;-73
2021/04/13 05:15:06;;;;;;;10.35;6.80;;;205.40;2022.40;;;;;;4966915;28;20126;-72
2021/04/13 05:17:32;;;;;;;9.85;6.95;;;205.40;2022.40;;;;;;5004591;28;20042;-73
2021/04/13 05:19:58;;;;;;;10.02;6.15;;;205.60;2022.40;;;;;;5023216;28;20030;-72
2021/04/13 05:22:24;;;;;;;12.90;6.60;;;205.60;1996.80;;;;;;5009983;28;20026;-73
2021/04/13 05:24:50;;;;;;;12.23;6.68;;;205.50;2022.40;;;;;;5012946;28;20408;-72
2021/04/13 05:27:16;;;;;;;8.75;6.75;;;205.60;1996.80;;;;;;5015068;28;20034;-72
2021/04/13 05:29:41;;;;;;;9.65;6.47;;;205.60;1996.80;;;;;;5015565;28;20083;-72
2021/04/13 05:32:07;;;;;;;8.38;6.95;;;205.70;1996.80;;;;;;5015109;28;20030;-72
2021/04/13 05:34:33;;;;;;;10.02;7.07;;;205.60;2022.40;;;;;;5015406;28;20018;-72
2021/04/13 05:36:59;;;;;;;14.65;8.02;;;205.70;1996.80;;;;;;5016524;28;20045;-72
2021/04/13 05:39:24;;;;;;;9.27;7.00;;;230.50;1996.80;;;;;;5007051;28;20065;-72
2021/04/13 05:41:54;;;;;;;11.55;7.47;;;230.40;1971.20;;;;;;5005751;28;20044;-72
2021/04/13 05:44:21;;;;;;;9.18;7.35;;;230.50;1996.80;;;;;;5014891;28;20061;-72
2021/04/13 05:46:47;;;;;;;12.23;8.55;;;230.60;1996.80;;;;;;5020522;28;20072;-71
2021/04/13 05:49:13;;;;;;;10.38;7.50;;;230.70;1971.20;;;;;;5019145;28;20014;-72
2021/04/13 05:51:38;;;;;;;12.43;7.88;;;230.80;1945.60;;;;;;5022715;28;20076;-72
2021/04/13 05:54:04;;;;;;;8.70;7.47;;;230.80;1945.60;;;;;;5027394;28;20044;-72
2021/04/13 05:56:34;;;;;;;9.93;7.28;;;230.90;1920.00;;;;;;5058412;28;20033;-71
2021/04/13 05:59:01;;;;;;;9.23;6.95;;;230.90;1894.40;;;;;;5056925;28;20039;-72
2021/04/13 06:01:30;;;;;;;10.75;7.38;;;231.00;1894.40;;;;;;5060689;28;20051;-72
2021/04/13 06:03:56;;;;;;;8.55;6.40;;;231.10;1894.40;;;;;;5061467;28;20016;-73
2021/04/13 06:06:22;;;;;;;12.40;6.72;;;231.20;1868.80;;;;;;5063816;28;20037;-72
2021/04/13 06:08:49;;;;;;;11.05;6.93;;;256.10;1843.20;;;;;;5060818;28;20029;-72
2021/04/13 06:11:22;;;;;;;12.15;6.43;;;256.20;1843.20;;;;;;5054631;28;20472;-72
2021/04/13 06:13:49;;;;;;;8.88;6.50;;;256.10;1843.20;;;;;;5058313;28;20042;-73
2021/04/13 06:16:18;;;;;;;10.82;7.18;;;256.20;1843.20;;;;;;5061577;28;20016;-72
2021/04/13 06:18:43;;;;;;;10.07;8.05;;;256.40;1843.20;;;;;;5063536;28;20145;-73
2021/04/13 06:21:09;;;;;;;7.68;6.00;;;256.60;1817.60;;;;;;5055781;28;20662;-72
2021/04/13 06:23:35;;;;;;;11.63;7.05;;;256.60;1792.00;;;;;;5059432;28;20021;-72
2021/04/13 06:26:01;;;;;;;7.18;6.00;;;256.60;1792.00;;;;;;5059515;28;20047;-72
2021/04/13 06:28:27;;;;;;;10.77;7.22;;;256.60;1792.00;;;;;;5052299;28;20032;-72
2021/04/13 06:30:54;;;;;;;11.93;6.65;;;256.80;1792.00;;;;;;5056201;28;20056;-72
2021/04/13 06:33:20;;;;;;;8.15;6.63;;;256.80;1766.40;;;;;;5063013;28;20024;-72
2021/04/13 06:35:47;;;;;;;8.75;6.22;;;281.80;1792.00;;;;;;5055718;28;20049;-72
2021/04/13 06:38:18;;;;;;;8.48;5.90;;;281.80;1766.40;;;;;;5054633;28;20051;-72
2021/04/13 06:40:59;;;;;;;12.80;5.50;;;281.70;1766.40;;;;;;5057407;28;20503;-72
2021/04/13 06:43:56;;;;;;;11.68;6.88;;;281.80;1766.40;;;;;;5071093;28;20107;-72
2021/04/13 06:46:40;;;;;;;12.65;7.15;;;282.00;1766.40;;;;;;5059498;28;20025;-72
2021/04/13 06:49:09;;;;;;;6.95;5.82;;;282.20;1740.80;;;;;;5078577;28;20024;-72
2021/04/13 06:51:58;;;;;;;10.30;5.53;;;282.10;1740.80;;;;;;5056887;28;20484;-72
2021/04/13 06:55:00;;;;;;;8.70;6.45;;;282.10;1740.80;;;;;;5058974;28;20048;-72
2021/04/13 06:57:28;;;;;;;9.57;6.35;;;282.00;1766.40;;;;;;5073214;28;20040;-71
2021/04/13 07:00:28;;;;;;;8.25;6.32;;;281.80;1766.40;;;;;;5057334;28;20080;-72
2021/04/13 07:03:25;;;;;;;8.40;5.93;;;281.70;1792.00;;;;;;5057857;28;20100;-72
2021/04/13 07:06:27;;;;;;;8.65;6.43;;;281.80;1766.40;;;;;;5054556;28;20024;-72
2021/04/13 07:09:04;;;;;;;7.15;6.13;;;281.80;1792.00;;;;;;4984181;28;20049;-72
2021/04/13 07:11:37;;;;;;;9.00;6.78;;;281.80;1766.40;;;;;;4980680;28;20493;-71
2021/04/13 07:14:16;;;;;;;10.02;6.65;;;281.60;1792.00;;;;;;4998394;28;20558;-72
2021/04/13 07:17:11;;;;;;;8.63;6.13;;;281.60;1792.00;;;;;;4995538;28;20034;-73
2021/04/13 07:19:54;;;;;;;8.73;6.47;;;281.70;1792.00;;;;;;4998863;28;20038;-74
2021/04/13 07:22:36;;;;;;;9.57;6.35;;;281.70;1792.00;;;;;;4976326;28;20026;-73
2021/04/13 07:25:10;;;;;;;11.20;7.15;;;281.70;1792.00;;;;;;4991253;28;20018;-73
2021/04/13 07:27:51;;;;;;;9.80;7.13;;;281.90;1792.00;;;;;;4996089;28;20045;-73
2021/04/13 07:30:41;;;;;;;8.40;6.53;;;281.90;1792.00;;;;;;4999284;28;20061;-73
2021/04/13 07:33:12;;;;;;;9.35;6.63;;;282.10;1766.40;;;;;;4997902;28;20030;-73
2021/04/13 07:35:39;;;;;;;8.50;6.95;;;282.00;1766.40;;;;;;4991795;28;20058;-73
2021/04/13 07:38:31;;;;;;;9.05;6.85;;;282.10;1766.40;;;;;;4996546;28;20482;-73
2021/04/13 07:41:22;;;;;;;7.90;6.68;;;282.20;1766.40;;;;;;4987474;28;20097;-73
2021/04/13 07:44:16;;;;;;;9.55;7.57;;;282.30;1740.80;;;;;;5043641;28;20508;-73
2021/04/13 07:47:09;;;;;;;11.52;7.03;;;282.40;1740.80;;;;;;5047945;28;20029;-72
2021/04/13 07:49:50;;;;;;;9.98;7.25;;;282.40;1740.80;;;;;;5055650;28;20025;-74
2021/04/13 07:52:41;;;;;;;8.98;7.45;;;282.40;1740.80;;;;;;5056094;28;20038;-74
2021/04/13 07:55:07;;;;;;;24.73;14.85;;;282.30;1766.40;;;;;;5055984;28;20072;-74
2021/04/13 07:57:36;;;;;;;14.65;11.25;;;282.40;1766.40;;;;;;5058603;28;20119;-73
2021/04/13 08:00:20;;;;;;;14.25;10.45;;;282.50;1740.80;;;;;;5050087;28;20033;-74
2021/04/13 08:03:09;;;;;;;13.95;9.20;;;282.50;1740.80;;;;;;5059749;28;20164;-74
2021/04/13 08:05:47;;;;;;;10.75;8.05;;;282.20;1766.40;;;;;;5070560;28;20538;-74
2021/04/13 08:08:32;;;;;;;11.80;7.57;;;282.20;1766.40;;;;;;5055839;28;20052;-75
2021/04/13 08:11:24;;;;;;;10.50;7.88;;;282.20;1766.40;;;;;;5059381;28;20032;-73
2021/04/13 08:13:52;;;;;;;12.30;7.80;;;282.30;1766.40;;;;;;5055260;28;20041;-74
2021/04/13 08:16:34;;;;;;;10.35;8.20;;;282.30;1766.40;;;;;;5054191;28;20103;-74
2021/04/13 08:19:24;;;;;;;12.05;7.95;;;282.30;1766.40;;;;;;5059677;28;20029;-73
2021/04/13 08:22:21;;;;;;;11.52;8.57;;;282.20;1766.40;;;;;;4998646;28;20034;-74
2021/04/13 08:24:52;;;;;;;11.63;8.05;;;282.30;1740.80;;;;;;4956321;28;20411;-73
2021/04/13 08:27:47;;;;;;;13.45;7.80;;;282.20;1766.40;;;;;;4958251;28;20032;-73
2021/04/13 08:30:43;;;;;;;9.13;7.47;;;307.20;1740.80;;;;;;4955432;28;20106;-74
2021/04/13 08:33:20;;;;;;;11.23;8.18;;;307.30;1740.80;;;;;;4961864;28;20038;-74
2021/04/13 08:36:07;;;;;;;12.18;8.27;;;307.40;1715.20;;;;;;4941305;28;20031;-74
2021/04/13 08:39:10;;;;;;;10.40;7.40;;;307.60;1715.20;;;;;;4958428;28;20032;-74
2021/04/13 08:42:08;;;;;;;9.63;8.20;;;307.30;1715.20;;;;;;4899385;29;20037;-73
2021/04/13 08:45:00;;;;;;;22.35;10.15;;;307.40;1715.20;;;;;;4903909;29;20081;-73
2021/04/13 08:47:37;;;;;;;18.65;9.48;;;307.40;1715.20;;;;;;4903247;29;20061;-71
2021/04/13 08:50:20;;;;;;;14.77;7.78;;;307.60;1715.20;;;;;;4889651;29;20063;-73
2021/04/13 08:52:59;;;;;;;14.88;9.27;;;307.50;1689.60;;;;;;4904287;29;20041;-73
2021/04/13 08:55:37;;;;;;;13.65;9.63;;;282.50;1715.20;;;;;;4881435;29;20044;-73
2021/04/13 08:58:19;;;;;;;12.15;8.35;;;282.10;1766.40;;;;;;4908369;28;20049;-73
2021/04/13 09:00:55;;;;;;;10.80;8.48;;;282.40;1740.80;;;;;;4983574;28;20035;-73
2021/04/13 09:03:42;;;;;;;15.45;10.07;;;307.50;1715.20;;;;;;4993180;28;20018;-73
2021/04/13 09:06:29;;;;;;;13.35;9.68;;;307.60;1715.20;;;;;;4994715;28;20481;-72
2021/04/13 09:09:18;;;;;;;12.32;8.98;;;307.90;1689.60;;;;;;4979027;28;20402;-72
2021/04/13 09:12:04;;;;;;;15.35;8.45;;;307.70;1715.20;;;;;;4995492;28;20520;-72
2021/04/13 09:14:37;;;;;;;14.50;8.48;;;307.60;1689.60;;;;;;4991415;28;20050;-72
2021/04/13 09:17:35;;;;;;;13.90;9.20;;;307.30;1740.80;;;;;;4983848;28;20029;-72
2021/04/13 09:20:12;;;;;;;;;;;307.30;1740.80;;;;;;4987049;28;20115;-70
2021/04/13 09:23:03;;;;;;;11.02;8.43;;;307.20;1740.80;;;;;;5052956;28;19991;-73
2021/04/13 09:25:54;;;;;;;14.13;10.02;;;282.40;1740.80;;;;;;5054098;28;20518;-73
2021/04/13 09:28:22;;;;;;;11.40;8.40;;;282.40;1740.80;;;;;;4969996;28;20049;-72
2021/04/13 09:31:10;;;;;;;11.50;9.50;;;282.20;1766.40;;;;;;4989274;28;20050;-72
2021/04/13 09:33:39;;;;;;;17.20;9.35;;;282.30;1740.80;;;;;;4989164;28;20038;-73
2021/04/13 09:36:13;;;;;;;11.45;8.80;;;282.50;1740.80;;;;;;4990846;28;20058;-72
2021/04/13 09:38:57;;;;;;;13.23;9.57;;;282.40;1740.80;;;;;;4987747;28;20038;-73
2021/04/13 09:41:41;;;;;;;17.25;9.75;;;307.20;1740.80;;;;;;4988947;28;20035;-72
2021/04/13 09:44:53;;;;;;;13.10;9.35;;;307.20;1766.40;;;;;;4992671;28;20058;-72
2021/04/13 09:47:40;;;;;;;10.20;8.32;;;307.20;1740.80;;;;;;4931213;29;20054;-72
2021/04/13 09:50:33;;;;;;;10.73;8.18;;;307.20;1740.80;;;;;;4934313;29;20039;-72
2021/04/13 09:53:23;;;;;;;10.40;7.50;;;282.20;1740.80;;;;;;4935076;29;20543;-73
2021/04/13 09:56:24;;;;;;;11.43;7.85;;;282.00;1766.40;;;;;;4937459;29;20075;-72
2021/04/13 09:59:22;;;;;;;10.98;8.02;;;282.30;1766.40;;;;;;4931254;29;20146;-71
2021/04/13 10:02:25;;;;;;;11.52;7.95;;;282.50;1715.20;;;;;;4927341;29;20039;-73
2021/04/13 10:05:00;;;;;;;11.77;7.72;;;307.30;1715.20;;;;;;4952487;28;20512;-73
2021/04/13 10:07:35;;;;;;;14.20;8.10;;;307.30;1715.20;;;;;;4986677;28;20133;-72
2021/04/13 10:10:05;;;;;;;12.43;8.45;;;307.30;1740.80;;;;;;4987927;28;20026;-73
2021/04/13 10:12:37;;;;;;;13.13;8.80;;;307.30;1740.80;;;;;;4999490;28;20041;-73
2021/04/13 10:15:34;;;;;;;12.52;9.45;;;282.50;1715.20;;;;;;5002514;28;20049;-74
2021/04/13 10:18:09;;;;;;;;;;;282.30;1740.80;;;;;;4997994;28;20129;-71
2021/04/13 10:21:23;;;;;;;10.88;7.40;;;282.30;1740.80;;;;;;4985475;28;19968;-73
2021/04/13 10:24:20;;;;;;;11.52;8.18;;;282.40;1715.20;;;;;;4989622;28;20417;-74
2021/04/13 10:26:45;;;;;;;17.05;12.55;;;282.20;1740.80;;;;;;5005314;28;20472;-73
2021/04/13 10:29:33;;;;;;;12.85;9.43;;;282.10;1740.80;;;;;;5021117;28;20119;-73
2021/04/13 10:32:28;;;;;;;18.33;11.18;;;281.80;1766.40;;;;;;5017936;28;20515;-73
2021/04/13 10:35:18;;;;;;;23.38;12.13;;;282.10;1766.40;;;;;;5018422;28;20113;-73
2021/04/13 10:37:46;;;;;;;14.98;10.05;;;282.00;1792.00;;;;;;5011201;28;20034;-74
2021/04/13 10:41:02;;;;;;;19.65;11.40;;;282.10;1766.40;;;;;;5021426;28;20061;-73
2021/04/13 10:43:48;;;;;;;14.70;9.98;;;282.30;1740.80;;;;;;4979576;28;20035;-74
2021/04/13 10:46:24;;;;;;;17.55;12.65;;;282.30;1766.40;;;;;;4953607;28;20088;-75
2021/04/13 10:49:16;;;;;;;18.00;10.18;;;282.30;1766.40;;;;;;4959970;28;20398;-75
2021/04/13 10:52:03;;;;;;;19.05;11.70;;;282.30;1740.80;;;;;;4973419;28;20129;-74
2021/04/13 10:54:29;;;;;;;16.60;11.85;;;282.00;1817.60;;;;;;4971150;28;20126;-77
2021/04/13 10:57:17;;;;;;;17.38;10.23;;;281.90;1868.80;;;;;;4998091;28;20129;-76
2021/04/13 11:00:03;;;;;;;19.13;11.25;;;282.10;1868.80;;;;;;4983841;28;20046;-77
2021/04/13 11:02:38;;;;;;;;;;;281.80;1920.00;;;;;;4980810;28;20026;-74
2021/04/13 11:05:08;;;;;;;15.68;10.30;;;281.90;1920.00;;;;;;5005162;28;19914;-77
2021/04/13 11:07:53;;;;;;;14.18;10.40;;;281.70;1945.60;;;;;;5000444;28;20051;-77
2021/04/13 11:10:27;;;;;;;17.02;10.27;;;256.70;1945.60;;;;;;4999898;28;20393;-76
2021/04/13 11:13:22;;;;;;;13.80;8.68;;;256.60;1945.60;;;;;;5000145;28;20060;-76
2021/04/13 11:16:06;;;;;;;14.02;9.50;;;256.50;1945.60;;;;;;4997385;28;20053;-76
2021/04/13 11:19:09;;;;;;;13.02;9.52;;;256.60;1971.20;;;;;;5016323;28;20037;-77
2021/04/13 11:22:02;;;;;;;15.30;9.68;;;256.70;2022.40;;;;;;5053665;28;20024;-79
2021/04/13 11:24:53;;;;;;;14.63;10.25;;;256.60;1996.80;;;;;;5072492;28;20479;-79
2021/04/13 11:27:58;;;;;;;15.13;10.02;;;256.50;2022.40;;;;;;5048808;28;20041;-80
2021/04/13 11:31:01;;;;;;;20.35;13.07;;;256.30;2073.60;;;;;;5056138;28;20025;-79
2021/04/13 11:33:36;;;;;;;20.92;14.43;;;256.30;2150.40;;;;;;5056258;28;20139;-80
2021/04/13 11:36:13;;;;;;;21.13;12.13;;;256.20;2176.00;;;;;;5072936;28;20502;-77
2021/04/13 11:38:39;;;;;;;14.13;10.40;;;256.00;2176.00;;;;;;5059553;28;20403;-76
2021/04/13 11:41:48;;;;;;;15.65;11.25;;;256.00;2150.40;;;;;;5047680;28;20824;-77
2021/04/13 11:44:35;;;;;;;14.23;10.35;;;231.30;2201.60;;;;;;5056464;28;20012;-74
2021/04/13 11:47:10;;;;;;;14.93;9.60;;;256.00;2201.60;;;;;;5055184;28;20070;-75
2021/04/13 11:50:01;;;;;;;14.57;10.88;;;231.20;2227.20;;;;;;5054742;28;20028;-73
2021/04/13 11:52:52;;;;;;;11.45;10.25;;;231.10;2252.80;;;;;;4971177;28;20145;-75
2021/04/13 11:55:27;;;;;;;14.50;9.98;;;231.20;2201.60;;;;;;4967305;28;20130;-76
2021/04/13 11:58:05;;;;;;;13.80;9.68;;;231.00;2176.00;;;;;;4969215;28;20619;-76
2021/04/13 12:00:31;;;;;;;17.15;10.80;;;230.90;2252.80;;;;;;4988615;28;20037;-76
2021/04/13 12:03:08;;;;;;;17.02;10.50;;;231.00;2252.80;;;;;;4975154;28;20030;-75
2021/04/13 12:05:34;;;;;;;15.38;12.15;;;231.20;2252.80;;;;;;4988658;28;20102;-74
2021/04/13 12:08:01;;;;;;;16.55;13.02;;;231.20;2252.80;;;;;;4968947;28;20133;-73
2021/04/13 12:10:29;;;;;;;17.70;10.60;;;231.20;2252.80;;;;;;4988567;28;20125;-74
2021/04/13 12:12:56;;;;;;;16.95;11.93;;;256.00;2201.60;;;;;;4975049;28;20157;-76
2021/04/13 12:15:21;;;;;;;12.45;9.73;;;256.00;2252.80;;;;;;4977235;28;20027;-74
2021/04/13 12:17:59;;;;;;;21.48;11.70;;;256.00;2201.60;;;;;;4989254;28;20785;-73
2021/04/13 12:20:28;;;;;;;15.77;10.95;;;256.00;2201.60;;;;;;4989268;28;20026;-74
2021/04/13 12:23:04;;;;;;;18.33;12.57;;;231.30;2227.20;;;;;;4969073;28;20621;-76
2021/04/13 12:25:40;;;;;;;;;;;231.10;2227.20;;;;;;4990019;28;20030;-73
2021/04/13 12:28:10;;;;;;;14.40;8.98;;;231.20;2252.80;;;;;;4992555;28;19914;-74
2021/04/13 12:30:42;;;;;;;13.70;9.95;;;231.20;2201.60;;;;;;5053494;28;20107;-74
2021/04/13 12:33:28;;;;;;;15.60;10.15;;;231.20;2252.80;;;;;;5054997;28;20025;-76
2021/04/13 12:36:05;;;;;;;16.27;8.23;;;231.30;2252.80;;;;;;4994841;28;20053;-75
2021/04/13 12:38:50;;;;;;;12.63;8.70;;;231.20;2201.60;;;;;;4972616;28;20035;-75
2021/04/13 12:41:19;;;;;;;11.55;9.32;;;231.10;2227.20;;;;;;4990007;28;20042;-75
2021/04/13 12:44:03;;;;;;;12.68;10.75;;;231.10;2252.80;;;;;;4993979;28;20517;-75
2021/04/13 12:46:32;;;;;;;15.15;9.30;;;231.10;2227.20;;;;;;4996938;28;20042;-75
2021/04/13 12:49:04;;;;;;;12.57;9.43;;;231.00;2252.80;;;;;;4983372;28;20050;-75
2021/04/13 12:51:37;;;;;;;10.23;8.57;;;231.10;2227.20;;;;;;4973699;28;20034;-75
2021/04/13 12:54:27;;;;;;;13.20;9.90;;;230.90;2227.20;;;;;;4974748;28;20049;-74
2021/04/13 12:57:15;;;;;;;15.10;10.38;;;230.80;2227.20;;;;;;4989750;28;20038;-75
2021/04/13 12:59:42;;;;;;;16.92;12.13;;;230.70;2252.80;;;;;;4992841;28;20052;-76
2021/04/13 13:02:32;;;;;;;27.83;17.77;;;230.50;2252.80;;;;;;4993654;28;20038;-76